createdAt,value
2018-12-02T00:00:20.386Z,18.40
2018-12-02T00:02:48.626Z,15.77
2018-12-02T00:05:16.864Z,16.40
2018-12-02T00:07:45.162Z,17.10
2018-12-02T00:10:14.490Z,16.83
2018-12-02T00:12:42.734Z,16.00
2018-12-02T00:15:16.912Z,17.33
2018-12-02T00:17:45.163Z,16.80
2018-12-02T00:20:14.237Z,18.03
2018-12-02T00:22:42.488Z,17.47
2018-12-02T00:25:11.829Z,18.53
2018-12-02T00:27:40.294Z,19.07
2018-12-02T00:30:14.704Z,18.83
2018-12-02T00:32:43.071Z,18.07
2018-12-02T00:35:12.214Z,18.83
2018-12-02T00:37:40.928Z,18.87
2018-12-02T00:40:13.951Z,19.73
2018-12-02T00:42:43.544Z,19.60
2018-12-02T00:45:12.900Z,20.10
2018-12-02T00:47:41.122Z,19.70
2018-12-02T00:50:10.405Z,19.23
2018-12-02T00:52:38.913Z,19.87
2018-12-02T00:55:13.123Z,19.57
2018-12-02T00:57:41.342Z,20.93
2018-12-02T01:00:13.690Z,22.00
2018-12-02T01:02:42.399Z,18.87
2018-12-02T01:05:13.815Z,19.27
2018-12-02T01:07:42.024Z,18.87
2018-12-02T01:10:11.686Z,18.87
2018-12-02T01:12:39.978Z,18.93
2018-12-02T01:15:09.774Z,20.90
2018-12-02T01:17:38.087Z,17.13
2018-12-02T01:20:08.949Z,17.83
2018-12-02T01:22:37.214Z,18.97
2018-12-02T01:25:06.255Z,18.40
2018-12-02T01:27:34.578Z,19.40
2018-12-02T01:30:02.897Z,17.53
2018-12-02T01:32:31.102Z,17.07
2018-12-02T01:34:59.462Z,17.40
2018-12-02T01:37:27.690Z,18.80
2018-12-02T01:39:55.920Z,17.93
2018-12-02T01:42:24.175Z,18.27
2018-12-02T01:44:52.442Z,18.33
2018-12-02T01:47:20.667Z,16.67
2018-12-02T01:49:48.903Z,19.03
2018-12-02T01:52:17.150Z,16.70
2018-12-02T01:54:45.386Z,19.67
2018-12-02T01:57:13.629Z,18.03
2018-12-02T01:59:41.869Z,18.17
2018-12-02T02:02:10.149Z,19.07
2018-12-02T02:04:38.430Z,18.03
2018-12-02T02:07:06.644Z,19.13
2018-12-02T02:09:34.863Z,20.93
2018-12-02T02:12:03.099Z,19.83
2018-12-02T02:14:31.330Z,18.73
2018-12-02T02:16:59.565Z,18.80
2018-12-02T02:19:27.831Z,20.00
2018-12-02T02:21:56.093Z,19.30
2018-12-02T02:24:24.334Z,20.73
2018-12-02T02:26:52.575Z,21.60
2018-12-02T02:29:20.824Z,20.90
2018-12-02T02:31:49.048Z,21.87
2018-12-02T02:34:17.270Z,21.40
2018-12-02T02:36:45.522Z,21.53
2018-12-02T02:39:13.749Z,22.47
2018-12-02T02:41:41.981Z,23.93
2018-12-02T02:44:10.196Z,24.10
2018-12-02T02:46:38.558Z,24.17
2018-12-02T02:49:06.799Z,23.63
2018-12-02T02:51:35.016Z,23.73
2018-12-02T02:54:03.292Z,23.90
2018-12-02T02:56:31.551Z,23.67
2018-12-02T02:58:59.834Z,24.33
2018-12-02T03:01:28.206Z,22.60
2018-12-02T03:03:56.433Z,25.00
2018-12-02T03:06:24.706Z,24.40
2018-12-02T03:08:53.009Z,24.37
2018-12-02T03:11:21.258Z,24.90
2018-12-02T03:13:49.504Z,24.03
2018-12-02T03:16:17.736Z,23.57
2018-12-02T03:18:45.961Z,23.53
2018-12-02T03:21:14.186Z,24.67
2018-12-02T03:23:42.526Z,23.47
2018-12-02T03:26:10.761Z,24.27
2018-12-02T03:28:39.044Z,25.20
2018-12-02T03:31:07.277Z,25.70
2018-12-02T03:33:35.516Z,22.40
2018-12-02T03:36:03.758Z,24.20
2018-12-02T03:38:32.006Z,24.87
2018-12-02T03:41:01.877Z,24.90
2018-12-02T03:43:30.110Z,24.40
2018-12-02T03:45:58.374Z,23.33
2018-12-02T03:48:26.598Z,22.93
2018-12-02T03:50:54.820Z,22.47
2018-12-02T03:53:23.043Z,23.40
2018-12-02T03:55:51.350Z,23.40
2018-12-02T03:58:19.620Z,23.33
2018-12-02T04:00:47.867Z,23.47
2018-12-02T04:03:16.258Z,22.07
2018-12-02T04:05:44.510Z,21.37
2018-12-02T04:08:12.759Z,22.93
2018-12-02T04:10:40.988Z,23.60
2018-12-02T04:13:09.240Z,21.97
2018-12-02T04:15:37.490Z,22.30
2018-12-02T04:18:05.754Z,22.83
2018-12-02T04:20:34.050Z,24.60
2018-12-02T04:23:02.280Z,21.00
2018-12-02T04:25:30.530Z,22.97
2018-12-02T04:27:58.867Z,22.77
2018-12-02T04:30:27.120Z,21.23
2018-12-02T04:32:55.414Z,21.87
2018-12-02T04:35:26.247Z,23.13
2018-12-02T04:37:54.555Z,23.53
2018-12-02T04:40:22.801Z,22.07
2018-12-02T04:42:51.034Z,22.27
2018-12-02T04:45:19.746Z,21.60
2018-12-02T04:47:48.281Z,21.93
2018-12-02T04:50:19.485Z,20.27
2018-12-02T04:52:47.709Z,20.33
2018-12-02T04:55:16.043Z,20.13
2018-12-02T04:57:44.273Z,19.40
2018-12-02T05:00:15.306Z,19.03
2018-12-02T05:02:44.278Z,18.50
2018-12-02T05:05:14.517Z,19.37
2018-12-02T05:07:42.987Z,17.73
2018-12-02T05:10:13.073Z,15.47
2018-12-02T05:12:41.610Z,16.70
2018-12-02T05:15:10.899Z,14.67
2018-12-02T05:17:39.222Z,14.43
2018-12-02T05:20:11.679Z,13.90
2018-12-02T05:22:39.919Z,14.80
2018-12-02T05:25:10.114Z,14.50
2018-12-02T05:27:38.489Z,13.30
2018-12-02T05:30:11.813Z,12.70
2018-12-02T05:32:40.341Z,10.63
2018-12-02T05:35:09.479Z,10.20
2018-12-02T05:37:37.714Z,10.67
2018-12-02T05:40:09.810Z,10.70
2018-12-02T05:42:38.072Z,10.10
2018-12-02T05:45:11.147Z,8.60
2018-12-02T05:47:39.358Z,8.40
2018-12-02T05:50:14.594Z,7.07
2018-12-02T05:52:42.874Z,9.00
2018-12-02T05:55:12.609Z,7.20
2018-12-02T05:57:40.981Z,5.87
2018-12-02T06:00:11.417Z,6.83
2018-12-02T06:02:39.658Z,6.80
2018-12-02T06:05:11.649Z,6.70
2018-12-02T06:07:39.915Z,6.50
2018-12-02T06:10:12.991Z,7.07
2018-12-02T06:12:41.213Z,6.83
2018-12-02T06:15:12.412Z,6.20
2018-12-02T06:17:40.622Z,5.70
2018-12-02T06:20:11.343Z,5.73
2018-12-02T06:22:39.657Z,5.90
2018-12-02T06:25:08.804Z,6.23
2018-12-02T06:27:37.499Z,7.43
2018-12-02T06:30:12.530Z,7.23
2018-12-02T06:32:40.832Z,7.40
2018-12-02T06:35:10.722Z,7.60
2018-12-02T06:37:38.965Z,7.00
2018-12-02T06:40:10.965Z,7.00
2018-12-02T06:42:39.187Z,6.73
2018-12-02T06:45:08.230Z,7.20
2018-12-02T06:47:36.465Z,7.27
2018-12-02T06:50:05.250Z,7.07
2018-12-02T06:52:34.122Z,7.80
2018-12-02T06:55:07.988Z,7.43
2018-12-02T06:57:45.214Z,7.27
2018-12-02T07:00:31.546Z,8.10
2018-12-02T07:03:25.005Z,8.50
2018-12-02T07:05:53.277Z,6.80
2018-12-02T07:08:21.527Z,7.10
2018-12-02T07:10:49.767Z,7.30
2018-12-02T07:13:18.016Z,7.70
2018-12-02T07:15:46.240Z,6.77
2018-12-02T07:18:18.854Z,7.40
2018-12-02T07:20:49.706Z,7.83
2018-12-02T07:23:21.858Z,9.00
2018-12-02T07:25:52.980Z,8.33
2018-12-02T07:28:21.230Z,8.70
2018-12-02T07:30:49.487Z,9.93
2018-12-02T07:33:17.738Z,10.47
2018-12-02T07:35:45.970Z,9.87
2018-12-02T07:38:21.467Z,11.27
2018-12-02T07:40:49.999Z,9.80
2018-12-02T07:43:18.242Z,9.73
2018-12-02T07:45:46.565Z,9.83
2018-12-02T07:48:15.430Z,9.87
2018-12-02T07:50:43.727Z,9.87
2018-12-02T07:53:11.981Z,10.23
2018-12-02T07:55:42.897Z,9.40
2018-12-02T07:58:15.584Z,8.10
2018-12-02T08:00:44.251Z,9.20
2018-12-02T08:03:12.652Z,10.20
2018-12-02T08:05:42.474Z,9.30
2018-12-02T08:08:11.010Z,11.27
2018-12-02T08:10:39.249Z,8.80
2018-12-02T08:13:07.493Z,10.10
2018-12-02T08:15:35.750Z,8.87
2018-12-02T08:18:03.975Z,9.30
2018-12-02T08:20:32.216Z,8.10
2018-12-02T08:23:00.450Z,9.33
2018-12-02T08:25:28.718Z,9.37
2018-12-02T08:27:56.965Z,8.10
2018-12-02T08:30:25.957Z,8.63
2018-12-02T08:32:55.024Z,7.40
2018-12-02T08:35:27.445Z,6.93
2018-12-02T08:37:58.242Z,7.00
2018-12-02T08:40:26.486Z,6.53
2018-12-02T08:42:54.766Z,5.50
2018-12-02T08:45:23.051Z,6.40
2018-12-02T08:47:51.271Z,4.83
2018-12-02T08:50:20.863Z,5.13
2018-12-02T08:52:50.519Z,5.30
2018-12-02T08:55:19.510Z,4.57
2018-12-02T08:57:48.533Z,5.10
2018-12-02T09:00:20.826Z,4.53
2018-12-02T09:03:07.304Z,4.37
2018-12-02T09:05:38.051Z,4.10
2018-12-02T09:08:10.082Z,5.20
2018-12-02T09:10:40.377Z,3.30
2018-12-02T09:13:11.228Z,3.43
2018-12-02T09:15:42.346Z,3.30
2018-12-02T09:18:12.638Z,3.53
2018-12-02T09:20:42.353Z,4.70
2018-12-02T09:23:13.748Z,4.33
2018-12-02T09:25:43.977Z,3.47
2018-12-02T09:28:13.853Z,3.60
2018-12-02T09:30:42.118Z,3.23
2018-12-02T09:33:10.363Z,3.70
2018-12-02T09:35:38.628Z,3.53
2018-12-02T09:38:06.929Z,3.50
2018-12-02T09:40:35.210Z,3.30
2018-12-02T09:43:06.750Z,2.30
2018-12-02T09:45:35.119Z,3.97
2018-12-02T09:48:03.398Z,3.97
2018-12-02T09:50:31.644Z,4.07
2018-12-02T09:52:59.962Z,3.93
2018-12-02T09:55:31.705Z,3.50
2018-12-02T09:58:00.067Z,3.90
2018-12-02T10:00:33.902Z,3.43
2018-12-02T10:02:56.668Z,4.13
2018-12-02T10:05:25.011Z,5.27
2018-12-02T10:07:54.198Z,4.83
2018-12-02T10:10:23.152Z,4.77
2018-12-02T10:12:54.144Z,4.93
2018-12-02T10:15:22.391Z,5.57
2018-12-02T10:17:50.662Z,5.20
2018-12-02T10:20:18.926Z,5.10
2018-12-02T10:22:47.436Z,6.10
2018-12-02T10:25:16.653Z,3.93
2018-12-02T10:27:44.915Z,3.60
2018-12-02T10:30:16.485Z,4.30
2018-12-02T10:32:44.717Z,3.77
2018-12-02T10:35:12.963Z,4.07
2018-12-02T10:37:41.190Z,4.63
2018-12-02T10:40:14.507Z,3.83
2018-12-02T10:42:42.760Z,3.40
2018-12-02T10:45:13.112Z,4.10
2018-12-02T10:47:41.582Z,3.00
2018-12-02T10:50:18.322Z,3.80
2018-12-02T10:55:27.170Z,3.67
2018-12-02T10:57:55.405Z,2.93
2018-12-02T11:00:29.079Z,3.93
2018-12-02T11:02:57.318Z,3.50
2018-12-02T11:05:25.551Z,3.33
2018-12-02T11:07:53.799Z,3.60
2018-12-02T11:10:22.094Z,3.80
2018-12-02T13:12:56.435Z,5.93
2018-12-02T13:15:25.636Z,5.60
2018-12-02T13:17:55.857Z,5.53
2018-12-02T13:20:26.280Z,5.97
2018-12-02T13:22:54.567Z,5.07
2018-12-02T13:25:22.977Z,7.07
2018-12-02T13:27:51.220Z,5.77
2018-12-02T13:30:20.193Z,5.40
2018-12-02T13:32:49.622Z,5.60
2018-12-02T13:35:17.897Z,6.37
2018-12-02T13:37:46.192Z,5.00
2018-12-02T13:40:17.536Z,4.63
2018-12-02T13:42:52.135Z,4.70
2018-12-02T13:45:22.874Z,4.67
2018-12-02T13:47:51.116Z,4.67
2018-12-02T13:50:20.028Z,4.80
2018-12-02T13:52:49.437Z,5.23
2018-12-02T13:55:18.810Z,4.60
2018-12-02T13:57:47.513Z,4.00
2018-12-02T14:00:17.742Z,3.83
2018-12-02T14:02:49.092Z,4.80
2018-12-02T14:05:17.359Z,4.07
2018-12-02T14:07:45.819Z,4.17
2018-12-02T14:10:14.771Z,3.10
2018-12-02T14:13:46.040Z,5.00
2018-12-02T14:16:32.921Z,3.47
2018-12-02T14:19:03.963Z,3.60
2018-12-02T14:21:32.227Z,3.33
2018-12-02T14:24:00.500Z,2.50
2018-12-02T14:26:28.732Z,4.20
2018-12-02T14:29:13.850Z,3.20
2018-12-02T14:31:44.841Z,4.53
2018-12-02T14:34:13.084Z,3.37
2018-12-02T14:36:41.386Z,4.00
2018-12-02T14:39:11.063Z,3.27
2018-12-02T14:41:39.404Z,3.27
2018-12-02T14:44:08.219Z,3.50
2018-12-02T14:46:36.679Z,3.30
2018-12-02T14:49:05.510Z,3.17
2018-12-02T14:51:33.824Z,3.83
2018-12-02T14:54:02.140Z,2.83
2018-12-02T14:56:30.384Z,3.07
2018-12-02T14:58:58.612Z,2.73
2018-12-02T15:01:26.846Z,3.03
2018-12-02T15:03:55.111Z,3.63
2018-12-02T15:06:23.375Z,2.67
2018-12-02T15:08:51.614Z,3.30
2018-12-02T15:11:19.850Z,4.70
2018-12-02T15:13:48.147Z,3.80
2018-12-02T15:16:16.355Z,2.50
2018-12-02T15:18:44.591Z,3.93
2018-12-02T15:21:12.862Z,2.30
2018-12-02T15:23:41.166Z,2.90
2018-12-02T15:26:09.507Z,2.97
2018-12-02T15:28:37.757Z,4.20
2018-12-02T15:31:06.005Z,2.43
2018-12-02T15:33:34.233Z,3.40
2018-12-02T15:36:02.506Z,2.73
2018-12-02T15:38:30.762Z,3.03
2018-12-02T15:40:59.055Z,2.17
2018-12-02T15:43:27.303Z,3.63
2018-12-02T15:45:55.535Z,2.30
2018-12-02T15:48:23.788Z,2.60
2018-12-02T15:50:52.040Z,4.10
2018-12-02T15:53:20.294Z,3.13
2018-12-02T15:55:48.583Z,3.83
2018-12-02T15:58:16.810Z,2.83
2018-12-02T16:00:46.081Z,4.67
2018-12-02T16:03:14.326Z,3.23
2018-12-02T16:05:42.555Z,2.93
2018-12-02T16:08:10.930Z,3.10
2018-12-02T16:10:39.170Z,4.27
2018-12-02T16:13:08.995Z,3.67
2018-12-02T16:15:37.271Z,4.07
2018-12-02T16:18:07.120Z,3.70
2018-12-02T16:20:41.220Z,3.20
2018-12-02T16:23:09.463Z,3.73
2018-12-02T16:25:37.774Z,3.63
2018-12-02T16:28:06.073Z,3.10
2018-12-02T16:30:34.458Z,3.70
2018-12-02T16:33:02.697Z,3.97
2018-12-02T16:35:30.978Z,3.27
2018-12-02T16:37:59.223Z,3.80
2018-12-02T16:40:27.559Z,3.37
2018-12-02T16:42:56.915Z,2.80
2018-12-02T16:45:25.206Z,3.10
2018-12-02T16:47:54.694Z,3.23
2018-12-02T16:50:26.026Z,2.70
2018-12-02T16:52:55.736Z,3.40
2018-12-02T16:55:26.676Z,3.80
2018-12-02T16:58:01.464Z,3.63
2018-12-02T17:00:36.080Z,3.53
2018-12-02T17:03:04.298Z,4.07
2018-12-02T17:05:32.575Z,3.57
2018-12-02T17:08:00.867Z,2.80
2018-12-02T17:10:29.094Z,3.17
2018-12-02T17:12:57.339Z,3.40
2018-12-02T17:15:25.621Z,3.47
2018-12-02T17:17:53.909Z,3.77
2018-12-02T17:20:22.163Z,4.20
2018-12-02T17:22:50.450Z,3.90
2018-12-02T17:25:18.682Z,4.90
2018-12-02T17:27:46.902Z,4.80
2018-12-02T17:30:21.555Z,5.07
2018-12-02T17:32:49.788Z,5.70
2018-12-02T17:35:18.023Z,4.90
2018-12-02T17:37:46.242Z,4.70
2018-12-02T17:40:17.395Z,5.93
2018-12-02T17:42:46.068Z,6.27
2018-12-02T17:45:14.338Z,5.93
2018-12-02T17:47:42.561Z,5.10
2018-12-02T17:50:14.107Z,5.50
2018-12-02T17:52:43.455Z,5.13
2018-12-02T17:55:11.678Z,5.00
2018-12-02T17:57:39.939Z,4.97
2018-12-02T18:00:10.743Z,5.20
2018-12-02T18:02:38.999Z,6.33
2018-12-02T18:05:10.411Z,4.40
2018-12-02T18:07:38.665Z,5.47
2018-12-02T18:10:09.796Z,4.53
2018-12-02T18:12:38.254Z,5.73
2018-12-02T18:15:10.322Z,4.03
2018-12-02T18:17:38.710Z,4.80
2018-12-02T18:20:09.254Z,4.30
2018-12-02T18:22:37.501Z,4.70
2018-12-02T18:25:09.685Z,4.30
2018-12-02T18:27:37.938Z,5.27
2018-12-02T18:30:19.795Z,4.97
2018-12-02T18:32:50.380Z,5.13
2018-12-02T18:35:22.270Z,4.77
2018-12-02T18:37:50.883Z,4.40
2018-12-02T18:40:19.123Z,3.23
2018-12-02T18:42:47.398Z,5.27
2018-12-02T18:45:15.635Z,3.37
2018-12-02T18:47:43.885Z,4.40
2018-12-02T18:50:12.522Z,4.70
2018-12-02T18:52:40.738Z,4.63
2018-12-02T18:55:11.244Z,3.53
2018-12-02T18:57:40.180Z,4.53
2018-12-02T19:00:18.335Z,4.50
2018-12-02T19:02:46.966Z,5.50
2018-12-02T19:05:15.206Z,5.07
2018-12-02T19:07:43.478Z,4.90
2018-12-02T19:10:13.534Z,4.47
2018-12-02T19:12:41.756Z,5.67
2018-12-02T19:15:12.415Z,4.90
2018-12-02T19:17:40.644Z,4.87
2018-12-02T19:20:12.874Z,4.70
2018-12-02T19:22:41.098Z,5.33
2018-12-02T19:25:11.292Z,6.50
2018-12-02T19:27:39.529Z,5.27
2018-12-02T19:30:11.550Z,5.10
2018-12-02T19:32:39.790Z,5.30
2018-12-02T19:35:12.930Z,5.80
2018-12-02T19:37:41.627Z,5.40
2018-12-02T19:40:13.250Z,5.03
2018-12-02T19:42:41.519Z,5.40
2018-12-02T19:45:12.445Z,5.57
2018-12-02T19:47:40.690Z,5.90
2018-12-02T19:50:12.032Z,5.10
2018-12-02T19:52:40.277Z,4.80
2018-12-02T19:55:09.793Z,5.47
2018-12-02T19:57:38.000Z,5.00
2018-12-02T20:00:26.847Z,5.90
2018-12-02T20:02:55.373Z,5.70
2018-12-02T20:05:23.629Z,6.10
2018-12-02T20:07:53.466Z,4.50
2018-12-02T20:10:23.239Z,4.30
2018-12-02T20:12:51.666Z,6.93
2018-12-02T20:15:19.929Z,4.70
2018-12-02T20:17:48.174Z,5.13
2018-12-02T20:20:23.758Z,5.47
2018-12-02T20:22:52.659Z,5.67
2018-12-02T20:25:22.254Z,5.40
2018-12-02T20:27:52.356Z,5.90
2018-12-02T20:30:21.534Z,4.30
2018-12-02T20:32:49.957Z,5.20
2018-12-02T20:35:18.210Z,4.70
2018-12-02T20:37:46.428Z,5.53
2018-12-02T20:40:17.871Z,4.70
2018-12-02T20:42:46.742Z,4.73
2018-12-02T20:45:15.726Z,5.17
2018-12-02T20:47:43.983Z,5.00
2018-12-02T20:50:14.103Z,4.60
2018-12-02T20:52:42.334Z,4.40
2018-12-02T20:55:12.723Z,3.73
2018-12-02T20:57:40.952Z,3.93
2018-12-02T21:00:14.535Z,3.47
2018-12-02T21:02:43.703Z,5.10
2018-12-02T21:05:16.415Z,3.33
2018-12-02T21:07:44.629Z,4.00
2018-12-02T21:10:12.892Z,3.60
2018-12-02T21:12:41.135Z,4.23
2018-12-02T21:15:11.863Z,3.90
2018-12-02T21:17:40.091Z,3.73
2018-12-02T21:20:09.936Z,5.27
2018-12-02T21:22:38.157Z,4.83
2018-12-02T21:25:12.844Z,5.70
2018-12-02T21:27:41.060Z,5.03
2018-12-02T21:30:18.212Z,4.30
2018-12-02T21:32:46.429Z,5.97
2018-12-02T21:35:14.666Z,5.90
2018-12-02T21:37:43.140Z,5.07
2018-12-02T21:40:14.358Z,6.20
2018-12-02T21:42:42.631Z,6.40
2018-12-02T21:45:12.790Z,5.23
2018-12-02T21:47:56.548Z,6.30
2018-12-02T21:50:30.343Z,5.80
2018-12-02T21:52:59.699Z,5.73
2018-12-02T21:55:28.034Z,6.60
2018-12-02T21:57:56.265Z,6.13
2018-12-02T22:00:30.043Z,5.83
2018-12-02T22:02:58.286Z,5.73
2018-12-02T22:05:26.709Z,5.60
2018-12-02T22:07:55.095Z,5.43
2018-12-02T22:10:26.563Z,6.00
2018-12-02T22:12:54.809Z,5.63
2018-12-02T22:15:23.030Z,6.70
2018-12-02T22:17:51.288Z,5.33
2018-12-02T22:20:19.564Z,5.43
2018-12-02T22:22:48.050Z,6.53
2018-12-02T22:25:20.481Z,6.03
2018-12-02T22:27:50.737Z,5.50
2018-12-02T22:30:20.045Z,5.67
2018-12-02T22:32:48.291Z,5.80
2018-12-02T22:35:16.917Z,6.13
2018-12-02T22:37:45.871Z,4.90
2018-12-02T22:40:22.078Z,5.63
2018-12-02T22:42:51.679Z,5.60
2018-12-02T22:45:22.105Z,5.63
2018-12-02T22:47:50.391Z,5.40
2018-12-02T22:50:19.565Z,5.67
2018-12-02T22:52:50.734Z,4.93
2018-12-02T22:55:19.011Z,4.93
2018-12-02T22:57:47.226Z,4.43
2018-12-02T23:00:25.807Z,4.00
2018-12-02T23:02:59.805Z,4.60
2018-12-02T23:05:28.058Z,3.83
2018-12-02T23:07:56.281Z,3.10
2018-12-02T23:10:24.513Z,3.40
2018-12-02T23:12:52.734Z,2.93
2018-12-02T23:15:21.098Z,4.03
2018-12-02T23:17:49.371Z,3.97
2018-12-02T23:20:17.594Z,2.80
2018-12-02T23:22:45.900Z,4.07
2018-12-02T23:25:14.810Z,3.67
2018-12-02T23:27:43.146Z,3.93
2018-12-02T23:30:15.844Z,4.93
2018-12-02T23:32:44.071Z,5.27
2018-12-02T23:35:12.295Z,3.70
2018-12-02T23:37:40.546Z,4.93
2018-12-02T23:40:12.722Z,4.30
2018-12-02T23:42:40.957Z,4.50
2018-12-02T23:45:10.235Z,4.23
2018-12-02T23:47:38.467Z,5.37
2018-12-02T23:50:11.267Z,3.73
2018-12-02T23:52:39.480Z,3.90
2018-12-02T23:55:10.072Z,3.80
2018-12-02T23:57:38.310Z,3.67
